AirNav   Phillips 66 Aviation Fuel
 
 1136 users online  

KMKV Marksville Municipal Airport
Marksville, Louisiana, USA

GOING TO MARKSVILLE?


FAA INFORMATION EFFECTIVE 24 MAY 2018

Location

FAA Identifier: MKV
Lat/Long: 31-05-40.8000N / 092-04-08.6000W
31-05.680000N / 092-04.143333W
31.0946667 / -92.0690556
(estimated)
Elevation: 78.7 ft. / 24.0 m (surveyed)
Variation: 02E (2005)
From city: 1 mile S of MARKSVILLE, LA
Time zone: UTC -5 (UTC -6 during Standard Time)
Zip code: 71350

Airport Operations

Airport use: Open to the public
Activation date: 04/1950
Control tower: no
ARTCC: HOUSTON CENTER
FSS: DE RIDDER FLIGHT SERVICE STATION
NOTAMs facility: DRI (NOTAM-D service available)
Attendance: MON-FRI 0700-1400
Wind indicator: lighted
Segmented circle: yes
Lights: REIL RWY 4/22; MIRL RWY 04/22 PRESET LOW INTST; TO INCR INTST ACTVT - CTAF-
Beacon: white-green (lighted land airport)
Operates sunset to sunrise.

Airport Communications

CTAF: 122.9
POLK APPROACH: 125.4
POLK DEPARTURE: 125.4

Nearby radio navigation aids

VOR radial/distance  VOR name  Freq  Var
AEXr111/24.2ALEXANDRIA VORTAC116.1003E

 
NDB name  Hdg/Dist  Freq  Var  ID
DURALDE029/37.626302EECY . -.-. -.--

Airport Services

Fuel available: 100LL
FUEL AVBL 24/7 WITH CC.
Parking: tiedowns
Bottled oxygen: NONE
Bulk oxygen: NONE

Runway Information

Runway 4/22

Dimensions: 3799 x 75 ft. / 1158 x 23 m
Surface: asphalt, in fair condition
LARGE CRACKS AT MIDFIELD. RWY 4 HAS BUMP ON LEFT SIDE 1000 FT FM APCH END.
Weight bearing capacity: 
Single wheel: 19.0
Runway edge lights: medium intensity
RUNWAY 4  RUNWAY 22
Latitude: 31-05.456558N31-05.901805N
Longitude: 092-04.399788W092-03.887283W
Elevation: 74.1 ft.78.5 ft.
Gradient: 0.1%0.1%
Traffic pattern: leftleft
Runway heading: 043 magnetic, 045 true223 magnetic, 225 true
Markings: nonprecision, in good conditionnonprecision, in good condition
Visual slope indicator: 2-light PAPI on left (3.00 degrees glide path)2-light PAPI on left (3.00 degrees glide path)
Runway end identifier lights: yesyes
Touchdown point: yes, no lightsyes, no lights
Obstructions: 60 ft. trees, 2608 ft. from runway, 40:1 slope to clear36 ft. trees, 666 ft. from runway, 195 ft. left of centerline, 12:1 slope to clear

Airport Ownership and Management from official FAA records

Ownership: Publicly-owned
Owner: AVOYELLES PARISH AIRPORT AUTHORITY
312 NORTH MAIN ST
MARKSVILLE, LA 71351
Phone 318-253-9208
Manager: ALVIN MOREAU
157 JOHNSON RD.
MARKSVILLE, LA 71351
Phone 318-447-3197

Airport Operational Statistics

Aircraft based on the field: 17
Single engine airplanes: 17
    
Aircraft operations: avg 28/day *
79% local general aviation
21% transient general aviation
* for 12-month period ending 19 September 2017

Additional Remarks

NE APN PAVEMENT FAILED.
AERIAL SPRAYING INVOF ARPT.
NE APN HLDG PSN NSTD.

Instrument Procedures

NOTE: All procedures below are presented as PDF files. If you need a reader for these files, you should download the free Adobe Reader.

NOT FOR NAVIGATION. Please procure official charts for flight.
FAA instrument procedures published for use from 24 May 2018 at 0901Z to 21 June 2018 at 0900Z.

 
IAPs - Instrument Approach Procedures
RNAV (GPS) RWY 04   download (155KB)
VOR/DME-A   download (154KB)
NOTE: Special Take-Off Minimums/Departure Procedures apply   download (116KB)

Other nearby airports with instrument procedures:

2R6 - Bunkie Municipal Airport (12 nm SW)
KESF - Esler Regional Airport (21 nm NW)
KAEX - Alexandria International Airport (28 nm NW)
KOPL - St Landry Parish Airport-Ahart Field (32 nm S)
KHZR - False River Regional Airport (38 nm SE)
 
Loc | Ops | Rwys | IFR | FBO | Links
Com | Nav | Svcs | Stats | Notes

AirNav Hotels Sweepstakes
 
Area around KMKV (Marksville Municipal Airport)
 
Road maps at: MapQuest Bing Google
 
Aerial photo
WARNING: Photo may not be current or correct
Aerial photo of KMKV (Marksville Municipal Airport)
Do you have a better or more recent aerial photo of Marksville Municipal Airport that you would like to share? If so, please send us your photo.

 
Sectional chart

 
Airport distance calculator
Flying to Marksville Municipal Airport? Find the distance to fly.

From to KMKV

Sunrise and sunset
Times for 25-May-2018
 Local
(UTC-5)
 Zulu
(UTC)
Morning civil twilight05:4110:41
Sunrise06:0811:08
Sunset20:0201:02
Evening civil twilight20:2901:29

Current date and time
Zulu (UTC)  25-May-2018 21:17:19
Local (UTC-5)  25-May-2018 16:17:19
 
METAR
KESF 
21nm NW 
252100Z AUTO 04005KT 10SM TS FEW045 SCT065 BKN085 31/23 A2990 RMK AO2 LTG DSNT N AND S TSB00 T03060233
KAEX 
29nm NW 
252053Z VRB05KT 10SM FEW055 33/18 A2987 RMK AO2 LTG DSNT NE SLP117 T03330183 56025
KOPL 
32nm S 
252055Z AUTO 20011KT 10SM VCTS SCT049 BKN060 BKN080 25/20 A2993 RMK AO2 LTG DSNT E THRU SW T02460204
KHZR 
38nm SE 
252055Z AUTO 16008KT 10SM SCT060 BKN110 30/20 A2993 RMK AO2 LTG DSNT NE AND W T02990197
KACP 
38nm SW 
252055Z AUTO 19009KT 10SM SCT050 SCT065 BKN085 31/22 A2990 RMK AO2 LTG DSNT E AND SE T03110218
TAF
KAEX 
29nm NW 
251720Z 2518/2618 VRB03KT P6SM VCTS FEW025CB SCT040 BKN080 TEMPO 2520/2524 VRB20G35KT 2SM SHRA BKN030 FM260200 VRB03KT P6SM SCT120
NOTAMs
Click for the latest NOTAMs
NOTAMs are issued by the DoD/FAA and will open in a separate window not controlled by AirNav.

 

 
 

FBO, Fuel Providers, and Aircraft Ground Support

  
 Business Name 
 
 Contact 
 
 Services / Description 
 
Fuel Prices
 
Comments
  
Marksville Municipal Airport 318-240-3088
318-253-7291
[email]
Airport management, Aviation fuel, Aircraft parking (ramp or tiedown)

More info about Marksville Municipal Airport
Phillips 66
100LL
SS $4.40 
 Updated 15-Mar-2018
 
   write
SS=Self service
Update Fuel Prices
 

Would you like to see your business listed on this page?

 If your business provides an interesting product or service to pilots, flight crews, aircraft, or users of the Marksville Municipal Airport, you should consider listing it here.  To start the listing process, click on the button below
 
Add a business
 

Other Pages about Marksville Municipal Airport

Update a link
 
Copyright © AirNav, LLC. All rights reserved. Privacy Policy  Contact